Time;durP1;ratioP1;P1;durP2;ratioP2;P2;SDS_P1;SDS_P2;PMS_P1;PMS_P2;Temp;Humidity;BMP_temperature;BMP_pressure;BME280_temperature;BME280_humidity;BME280_pressure;Samples;Min_cycle;Max_cycle;Signal;HPM_P1;HPM_P2
2022/07/24 00:01:03;;;;;;;3.83;2.60;;;;;;;27.79;40.24;100571.76;1741675;82;21010;-84
2022/07/24 00:03:30;;;;;;;4.28;2.87;;;;;;;27.79;40.27;100570.95;1752069;81;21010;-84
2022/07/24 00:05:57;;;;;;;2.80;2.27;;;;;;;27.79;40.27;100569.55;1751987;80;21032;-84
2022/07/24 00:08:23;;;;;;;3.55;2.62;;;;;;;27.79;40.25;100567.56;1752890;80;21330;-84
2022/07/24 00:10:50;;;;;;;3.60;2.62;;;;;;;27.78;40.25;100564.55;1753585;80;20982;-86
2022/07/24 00:13:16;;;;;;;3.95;2.70;;;;;;;27.78;40.27;100565.13;1752802;80;21931;-83
2022/07/24 00:15:42;;;;;;;3.20;2.90;;;;;;;27.78;40.28;100563.14;1752878;80;21010;-83
2022/07/24 00:18:09;;;;;;;3.25;2.67;;;;;;;27.78;40.28;100563.73;1733698;81;21065;-83
2022/07/24 00:20:35;;;;;;;3.10;2.40;;;;;;;27.78;40.28;100559.54;1752485;80;21167;-83
2022/07/24 00:23:02;;;;;;;3.65;2.58;;;;;;;27.77;40.29;100553.72;1752960;82;21049;-84
2022/07/24 00:25:28;;;;;;;4.17;2.80;;;;;;;27.77;40.30;100555.94;1752981;80;21065;-82
2022/07/24 00:27:54;;;;;;;4.33;2.37;;;;;;;27.79;40.29;100561.16;1751859;80;21057;-83
2022/07/24 00:30:21;;;;;;;3.30;2.47;;;;;;;27.77;40.30;100558.73;1750762;81;21600;-83
2022/07/24 00:32:47;;;;;;;5.05;2.70;;;;;;;27.78;40.30;100558.14;1750436;81;21154;-83
2022/07/24 00:35:14;;;;;;;3.83;2.80;;;;;;;27.77;40.32;100557.33;1750044;82;21478;-84
2022/07/24 00:37:40;;;;;;;3.30;2.45;;;;;;;27.77;40.32;100554.53;1750244;81;21679;-84
2022/07/24 00:40:08;;;;;;;2.75;2.42;;;;;;;27.77;40.34;100554.53;1750303;82;22015;-84
2022/07/24 00:42:34;;;;;;;4.22;2.67;;;;;;;27.77;40.30;100548.13;1749990;82;21060;-83
2022/07/24 00:45:00;;;;;;;3.30;2.70;;;;;;;27.77;40.32;100553.72;1749824;81;21055;-83
2022/07/24 00:47:27;;;;;;;2.75;2.45;;;;;;;27.78;40.33;100552.55;1750031;81;21535;-84
2022/07/24 00:49:53;;;;;;;4.10;2.55;;;;;;;27.77;40.30;100550.92;1749867;82;21012;-84
2022/07/24 00:52:20;;;;;;;3.45;2.70;;;;;;;27.76;40.32;100554.31;1750042;82;21147;-84
2022/07/24 00:54:46;;;;;;;3.35;2.40;;;;;;;27.77;40.30;100559.31;1749881;81;21024;-84
2022/07/24 00:57:13;;;;;;;3.62;2.58;;;;;;;27.76;40.34;100553.50;1749682;82;21122;-84
2022/07/24 00:59:39;;;;;;;6.80;2.20;;;;;;;27.77;40.36;100553.72;1750124;81;21470;-84
2022/07/24 01:02:06;;;;;;;3.62;2.65;;;;;;;27.77;40.36;100550.34;1750229;82;21043;-84
2022/07/24 01:04:32;;;;;;;2.87;2.50;;;;;;;27.76;40.36;100542.31;1750059;81;21091;-83
2022/07/24 01:06:59;;;;;;;3.65;2.67;;;;;;;27.76;40.38;100545.92;1750243;82;21001;-84
2022/07/24 01:09:25;;;;;;;3.45;2.77;;;;;;;27.76;40.38;100550.12;1750202;81;21130;-84
2022/07/24 01:11:52;;;;;;;3.65;2.92;;;;;;;27.76;40.40;100554.31;1749575;82;21042;-84
2022/07/24 01:14:18;;;;;;;3.90;2.47;;;;;;;27.77;40.41;100548.13;1750128;82;21574;-84
2022/07/24 01:16:45;;;;;;;4.33;2.45;;;;;;;27.75;40.39;100551.32;1750226;82;20995;-84
2022/07/24 01:19:11;;;;;;;3.10;2.55;;;;;;;27.75;40.40;100544.92;1749915;81;21027;-83
2022/07/24 01:21:38;;;;;;;4.28;2.55;;;;;;;27.76;40.41;100551.52;1750088;81;21053;-84
2022/07/24 01:24:05;;;;;;;3.20;2.67;;;;;;;27.76;40.41;100549.30;1750257;82;21476;-84
2022/07/24 01:26:31;;;;;;;2.98;2.50;;;;;;;27.76;40.43;100546.51;1752169;81;21032;-84
2022/07/24 01:28:58;;;;;;;3.10;2.40;;;;;;;27.75;40.43;100545.73;1757745;81;21032;-84
2022/07/24 01:31:24;;;;;;;4.45;2.50;;;;;;;27.74;40.43;100541.31;1757822;81;21607;-84
2022/07/24 01:33:51;;;;;;;3.83;2.52;;;;;;;27.75;40.43;100542.94;1757441;81;21868;-84
2022/07/24 01:36:17;;;;;;;3.60;2.22;;;;;;;27.75;40.43;100545.73;1752668;80;21059;-84
2022/07/24 01:38:44;;;;;;;3.00;2.70;;;;;;;27.75;40.47;100549.92;1757770;81;21501;-83
2022/07/24 01:41:10;;;;;;;3.40;2.60;;;;;;;27.76;40.48;100547.91;1757441;81;20985;-84
2022/07/24 01:43:36;;;;;;;5.87;2.87;;;;;;;27.76;40.47;100543.13;1757722;81;21035;-83
2022/07/24 01:46:03;;;;;;;3.37;2.67;;;;;;;27.75;40.50;100531.75;1757779;81;21101;-84
2022/07/24 01:48:29;;;;;;;2.90;2.55;;;;;;;27.75;40.49;100530.35;1757041;81;21032;-84
2022/07/24 01:50:56;;;;;;;3.22;2.40;;;;;;;27.76;40.51;100522.75;1757901;81;20983;-84
2022/07/24 01:53:22;;;;;;;3.20;2.50;;;;;;;27.75;40.52;100526.75;1757360;80;21290;-83
2022/07/24 01:55:52;;;;;;;3.75;2.52;;;;;;;27.75;40.49;100522.55;1757541;81;21124;-83
2022/07/24 01:58:18;;;;;;;2.67;2.43;;;;;;;27.75;40.55;100522.55;1757655;81;21212;-84
2022/07/24 02:00:50;;;;;;;2.72;2.42;;;;;;;27.74;40.55;100517.55;1757359;81;21064;-83
2022/07/24 02:03:17;;;;;;;4.42;2.55;;;;;;;27.75;40.53;100512.77;1757562;81;21064;-84
2022/07/24 02:05:44;;;;;;;2.98;2.50;;;;;;;27.75;40.54;100511.37;1757847;81;21622;-83
2022/07/24 02:08:10;;;;;;;3.02;2.72;;;;;;;27.75;40.55;100507.98;1757787;81;20977;-83
2022/07/24 02:10:37;;;;;;;4.25;2.62;;;;;;;27.75;40.56;100502.98;1757744;81;21206;-83
2022/07/24 02:13:03;;;;;;;4.90;2.70;;;;;;;27.75;40.58;100506.59;1757907;81;21122;-83
2022/07/24 02:15:29;;;;;;;3.62;2.65;;;;;;;27.75;40.55;100505.20;1757999;81;21048;-83
2022/07/24 02:18:02;;;;;;;3.02;2.22;;;;;;;27.73;40.57;100504.75;1757539;81;21491;-83
2022/07/24 02:20:29;;;;;;;3.17;2.62;;;;;;;27.74;40.56;100506.38;1758003;81;20996;-84
2022/07/24 02:22:55;;;;;;;3.60;2.77;;;;;;;27.74;40.59;100500.78;1763083;80;23222;-84
2022/07/24 02:25:22;;;;;;;4.50;2.60;;;;;;;27.75;40.60;100500.19;1762987;80;20985;-84
2022/07/24 02:27:48;;;;;;;3.22;2.55;;;;;;;27.74;40.61;100502.17;1756444;80;21035;-84
2022/07/24 02:30:19;;;;;;;2.92;2.50;;;;;;;27.73;40.60;100494.97;1752792;81;21051;-83
2022/07/24 02:32:46;;;;;;;3.25;2.40;;;;;;;27.74;40.62;100499.97;1731089;82;22257;-84
2022/07/24 02:35:12;;;;;;;3.02;2.58;;;;;;;27.73;40.62;100490.77;1752988;81;22472;-84
2022/07/24 02:37:40;;;;;;;4.05;2.95;;;;;;;27.74;40.61;100498.56;1731150;82;21061;-84
2022/07/24 02:40:13;;;;;;;3.00;2.60;;;;;;;27.72;40.63;100491.95;1752470;81;21044;-84
2022/07/24 02:42:40;;;;;;;2.92;2.47;;;;;;;27.73;40.62;100494.97;1731119;82;21689;-83
2022/07/24 02:45:07;;;;;;;3.75;2.70;;;;;;;27.73;40.62;100496.36;1752778;81;21086;-84
2022/07/24 02:47:34;;;;;;;3.70;2.90;;;;;;;27.74;40.65;100485.98;1705736;82;21226;-84
2022/07/24 02:50:00;;;;;;;2.80;2.40;;;;;;;27.73;40.66;100486.58;1752653;81;21505;-83
2022/07/24 02:52:32;;;;;;;3.15;2.37;;;;;;;27.73;40.65;100483.78;1730964;82;21104;-83
2022/07/24 02:54:59;;;;;;;2.85;2.47;;;;;;;27.73;40.67;100483.78;1728321;81;21051;-83
2022/07/24 02:57:25;;;;;;;3.25;2.72;;;;;;;27.73;40.67;100479.59;1731070;82;21013;-84
2022/07/24 02:59:52;;;;;;;2.67;2.42;;;;;;;27.73;40.68;100480.98;1723382;81;21154;-84
2022/07/24 03:02:19;;;;;;;3.15;2.50;;;;;;;27.73;40.69;100475.39;1720741;82;21509;-83
2022/07/24 03:04:45;;;;;;;4.33;2.45;;;;;;;27.73;40.72;100470.39;1720988;82;21097;-83
2022/07/24 03:07:12;;;;;;;4.03;2.60;;;;;;;27.72;40.71;100477.97;1720915;82;21088;-83
2022/07/24 03:09:38;;;;;;;2.90;2.45;;;;;;;27.73;40.71;100481.58;1720803;82;21162;-83
2022/07/24 03:12:05;;;;;;;3.87;2.35;;;;;;;27.73;40.72;100478.78;1721136;82;21537;-83
2022/07/24 03:14:32;;;;;;;3.55;2.70;;;;;;;27.73;40.73;100485.77;1720708;82;21018;-83
2022/07/24 03:16:58;;;;;;;3.58;2.77;;;;;;;27.73;40.74;100491.36;1720781;82;21504;-83
2022/07/24 03:19:25;;;;;;;2.98;2.55;;;;;;;27.72;40.75;100487.75;1720615;82;21054;-83
2022/07/24 03:21:51;;;;;;;3.62;2.40;;;;;;;27.71;40.78;100493.93;1720999;83;21030;-83
2022/07/24 03:24:18;;;;;;;3.10;2.60;;;;;;;27.73;40.78;100491.36;1720577;82;21109;-83
2022/07/24 03:26:44;;;;;;;3.15;2.58;;;;;;;27.73;40.79;100495.55;1721502;81;21029;-84
2022/07/24 03:29:11;;;;;;;2.65;2.40;;;;;;;27.73;40.80;100493.56;1727537;82;21063;-83
2022/07/24 03:31:37;;;;;;;2.95;2.35;;;;;;;27.71;40.79;100495.33;1727413;83;21003;-84
2022/07/24 03:34:04;;;;;;;2.75;2.27;;;;;;;27.72;40.78;100493.34;1727580;81;21045;-83
2022/07/24 03:36:30;;;;;;;4.55;2.72;;;;;;;27.72;40.81;100491.95;1743012;80;21147;-84
2022/07/24 03:38:57;;;;;;;4.33;2.67;;;;;;;27.72;40.81;100489.15;1743924;80;21084;-83
2022/07/24 03:41:23;;;;;;;2.77;2.37;;;;;;;27.71;40.82;100491.13;1744180;80;21021;-84
2022/07/24 03:43:49;;;;;;;3.27;2.27;;;;;;;27.73;40.82;100496.95;1744122;81;21097;-84
2022/07/24 03:46:16;;;;;;;3.00;2.40;;;;;;;27.73;40.82;100484.37;1743803;80;21461;-83
2022/07/24 03:48:42;;;;;;;3.02;2.52;;;;;;;27.71;40.85;100489.73;1744272;81;21095;-84
2022/07/24 03:51:09;;;;;;;4.05;2.62;;;;;;;27.72;40.82;100482.16;1744216;82;21522;-84
2022/07/24 03:53:36;;;;;;;2.72;2.30;;;;;;;27.72;40.83;100480.77;1743736;80;21650;-84
2022/07/24 03:56:06;;;;;;;2.33;2.10;;;;;;;27.73;40.86;100481.58;1744161;80;21076;-83
2022/07/24 03:58:32;;;;;;;2.80;2.45;;;;;;;27.72;40.85;100483.56;1744309;80;21108;-85
2022/07/24 04:00:59;;;;;;;3.10;2.45;;;;;;;27.71;40.83;100486.94;1743997;81;21441;-84
2022/07/24 04:03:25;;;;;;;3.50;2.75;;;;;;;27.73;40.87;100478.78;1716929;82;21112;-84
2022/07/24 04:05:51;;;;;;;3.70;2.77;;;;;;;27.72;40.85;100484.95;1744088;80;21048;-84
2022/07/24 04:08:18;;;;;;;4.08;2.70;;;;;;;27.73;40.84;100483.78;1743978;80;21132;-83
2022/07/24 04:10:44;;;;;;;3.87;2.83;;;;;;;27.73;40.86;100491.36;1744089;80;20965;-84
2022/07/24 04:13:17;;;;;;;4.40;2.50;;;;;;;27.71;40.86;100481.34;1718843;82;21071;-84
2022/07/24 04:15:43;;;;;;;3.70;2.50;;;;;;;27.71;40.86;100482.75;1707715;82;21014;-84
2022/07/24 04:18:10;;;;;;;2.67;2.30;;;;;;;27.73;40.85;100483.78;1708039;82;21460;-84
2022/07/24 04:20:36;;;;;;;3.33;2.47;;;;;;;27.73;40.87;100486.58;1707929;83;21064;-84
2022/07/24 04:23:03;;;;;;;2.95;2.50;;;;;;;27.73;40.83;100484.37;1707667;82;21080;-84
2022/07/24 04:25:29;;;;;;;4.42;2.92;;;;;;;27.72;40.85;100484.95;1708095;82;21524;-84
2022/07/24 04:27:56;;;;;;;3.35;2.58;;;;;;;27.73;40.87;100484.37;1698398;84;21043;-84
2022/07/24 04:30:22;;;;;;;5.97;2.47;;;;;;;27.73;40.86;100480.17;1685822;83;21032;-83
2022/07/24 04:32:49;;;;;;;3.40;2.72;;;;;;;27.72;40.83;100477.97;1686081;83;21043;-84
2022/07/24 04:35:15;;;;;;;3.87;2.50;;;;;;;27.73;40.86;100473.19;1685978;83;21027;-84
2022/07/24 04:37:41;;;;;;;2.65;2.30;;;;;;;27.72;40.86;100472.38;1685685;84;21113;-84
2022/07/24 04:40:11;;;;;;;3.20;2.17;;;;;;;27.73;40.86;100479.59;1686020;83;21494;-83
2022/07/24 04:42:37;;;;;;;3.15;2.65;;;;;;;27.72;40.86;100468.19;1686049;83;21013;-83
2022/07/24 04:45:05;;;;;;;3.35;2.50;;;;;;;27.72;40.85;100477.97;1685835;83;21040;-84
2022/07/24 04:47:31;;;;;;;3.37;2.80;;;;;;;27.73;40.85;100472.60;1686018;83;21076;-83
2022/07/24 04:49:57;;;;;;;3.20;2.47;;;;;;;27.73;40.87;100468.41;1719590;82;21735;-83
2022/07/24 04:52:24;;;;;;;3.50;2.37;;;;;;;27.73;40.85;100472.60;1720026;81;21180;-83
2022/07/24 04:54:50;;;;;;;3.22;2.45;;;;;;;27.73;40.86;100470.39;1719843;82;21045;-83
2022/07/24 04:57:17;;;;;;;5.90;2.60;;;;;;;27.73;40.87;100474.00;1720177;82;21050;-83
2022/07/24 04:59:43;;;;;;;2.77;2.47;;;;;;;27.73;40.86;100480.17;1719876;82;21105;-83
2022/07/24 05:02:10;;;;;;;3.33;2.50;;;;;;;27.73;40.87;100475.39;1720384;82;21242;-84
2022/07/24 05:04:36;;;;;;;3.20;2.45;;;;;;;27.74;40.87;100477.61;1720134;82;21543;-84
2022/07/24 05:07:03;;;;;;;3.72;2.55;;;;;;;27.74;40.88;100480.40;1719955;82;21528;-83
2022/07/24 05:09:30;;;;;;;3.12;2.50;;;;;;;27.74;40.88;100476.20;1720139;82;21030;-83
2022/07/24 05:11:56;;;;;;;3.92;2.65;;;;;;;27.74;40.90;100474.22;1720385;83;21053;-83
2022/07/24 05:14:22;;;;;;;4.03;2.87;;;;;;;27.74;40.89;100467.23;1720084;82;21181;-84
2022/07/24 05:16:55;;;;;;;2.95;2.50;;;;;;;27.75;40.89;100469.45;1720333;82;21029;-84
2022/07/24 05:19:22;;;;;;;3.42;2.40;;;;;;;27.75;40.90;100466.65;1720330;82;21085;-84
2022/07/24 05:21:48;;;;;;;3.70;2.67;;;;;;;27.75;40.89;100464.66;1720162;82;21022;-84
2022/07/24 05:24:14;;;;;;;2.77;2.37;;;;;;;27.74;40.88;100463.63;1726001;81;21033;-84
2022/07/24 05:26:41;;;;;;;2.83;2.40;;;;;;;27.75;40.90;100456.86;1719015;83;21106;-84
2022/07/24 05:29:07;;;;;;;2.90;2.55;;;;;;;27.75;40.92;100452.09;1730907;82;21082;-83
2022/07/24 05:31:34;;;;;;;4.30;2.90;;;;;;;27.75;40.93;100450.69;1731213;82;21313;-84
2022/07/24 05:34:02;;;;;;;2.65;2.30;;;;;;;27.75;40.94;100447.89;1731258;82;21026;-83
2022/07/24 05:36:28;;;;;;;3.52;2.72;;;;;;;27.75;40.94;100453.48;1730871;82;21610;-84
2022/07/24 05:38:55;;;;;;;3.10;2.47;;;;;;;27.75;40.94;100455.47;1731254;82;21750;-84
2022/07/24 05:41:21;;;;;;;3.25;2.70;;;;;;;27.76;40.96;100454.27;1731189;82;21048;-84
2022/07/24 05:43:48;;;;;;;2.72;2.25;;;;;;;27.75;40.94;100454.88;1730934;82;21710;-84
2022/07/24 05:46:14;;;;;;;3.60;2.70;;;;;;;27.75;40.97;100447.08;1731078;82;21528;-84
2022/07/24 05:48:40;;;;;;;3.72;2.83;;;;;;;27.76;40.97;100455.07;1739216;82;21568;-84
2022/07/24 05:51:07;;;;;;;3.70;2.55;;;;;;;27.75;40.99;100447.89;1731049;82;22042;-84
2022/07/24 05:53:33;;;;;;;3.20;2.77;;;;;;;27.76;40.98;100445.88;1731029;81;21088;-84
2022/07/24 05:56:00;;;;;;;3.75;2.80;;;;;;;27.76;40.99;100445.29;1731142;82;21033;-85
2022/07/24 05:58:26;;;;;;;2.70;2.35;;;;;;;27.76;40.99;100447.27;1730964;82;21330;-84
2022/07/24 06:00:53;;;;;;;3.15;2.47;;;;;;;27.76;40.99;100446.69;1729719;82;21705;-85
2022/07/24 06:03:19;;;;;;;2.47;2.25;;;;;;;27.77;41.03;100446.09;1703410;83;21107;-84
2022/07/24 06:05:52;;;;;;;5.15;2.67;;;;;;;27.77;41.03;100437.13;1703110;82;21051;-84
2022/07/24 06:08:18;;;;;;;4.40;2.80;;;;;;;27.78;41.05;100442.12;1711348;83;21393;-84
2022/07/24 06:10:44;;;;;;;2.87;2.37;;;;;;;27.77;41.04;100443.30;1703586;82;21044;-84
2022/07/24 06:13:11;;;;;;;2.77;2.37;;;;;;;27.77;41.04;100441.31;1703280;83;21558;-84
2022/07/24 06:15:37;;;;;;;2.90;2.60;;;;;;;27.77;41.08;100442.72;1703568;82;21839;-84
2022/07/24 06:18:04;;;;;;;4.85;2.55;;;;;;;27.79;41.07;100442.35;1703386;82;21058;-84
2022/07/24 06:20:31;;;;;;;3.08;2.60;;;;;;;27.79;41.07;100439.55;1703246;82;21084;-84
2022/07/24 06:22:57;;;;;;;4.10;2.90;;;;;;;27.79;41.08;100436.17;1703606;82;21498;-84
2022/07/24 06:25:24;;;;;;;3.62;2.72;;;;;;;27.78;41.09;100432.34;1703470;82;21084;-85
2022/07/24 06:27:51;;;;;;;3.25;2.60;;;;;;;27.79;41.09;100426.39;1703529;82;21001;-84
2022/07/24 06:30:25;;;;;;;2.95;2.37;;;;;;;27.79;41.09;100423.59;1744328;81;21072;-84
2022/07/24 06:32:57;;;;;;;2.45;2.25;;;;;;;27.79;41.12;100416.60;1744488;81;21116;-85
2022/07/24 06:35:25;;;;;;;3.15;2.58;;;;;;;27.80;41.12;100412.61;1743944;81;21109;-84
2022/07/24 06:37:51;;;;;;;3.05;2.60;;;;;;;27.80;41.10;100419.59;1746335;81;21640;-85
2022/07/24 06:40:18;;;;;;;3.05;2.47;;;;;;;27.80;41.08;100411.80;1759269;80;21481;-84
2022/07/24 06:42:47;;;;;;;2.98;2.42;;;;;;;27.81;41.08;100410.62;1758959;80;21066;-85
2022/07/24 06:45:14;;;;;;;3.02;2.70;;;;;;;27.80;41.07;100405.61;1759315;80;21087;-84
2022/07/24 06:47:40;;;;;;;2.80;2.20;;;;;;;27.81;41.09;100404.44;1759340;80;21022;-84
2022/07/24 06:50:08;;;;;;;3.42;2.90;;;;;;;27.81;41.09;100401.64;1758882;80;21912;-83
2022/07/24 06:52:35;;;;;;;2.87;2.58;;;;;;;27.82;41.07;100399.66;1759129;80;21320;-84
2022/07/24 06:55:01;;;;;;;2.92;2.45;;;;;;;27.81;41.08;100393.84;1759117;80;21540;-83
2022/07/24 06:57:27;;;;;;;2.98;2.58;;;;;;;27.82;41.08;100394.88;1758676;80;21066;-84
2022/07/24 06:59:54;;;;;;;4.22;2.70;;;;;;;27.83;41.09;100398.48;1759016;80;21134;-85
2022/07/24 07:02:21;;;;;;;2.60;2.20;;;;;;;27.83;41.07;100397.89;1758939;80;20939;-84
2022/07/24 07:04:47;;;;;;;2.92;2.60;;;;;;;27.83;41.08;100395.09;1758684;80;21638;-84
2022/07/24 07:07:15;;;;;;;2.72;2.33;;;;;;;27.84;41.08;100391.72;1758984;80;21041;-84
2022/07/24 07:09:42;;;;;;;3.40;2.62;;;;;;;27.84;41.08;100393.89;1758994;80;21054;-84
2022/07/24 07:12:15;;;;;;;3.22;2.40;;;;;;;27.84;41.10;100395.29;1758800;81;21090;-84
2022/07/24 07:14:42;;;;;;;3.22;2.25;;;;;;;27.84;41.07;100396.69;1758960;80;21086;-84
2022/07/24 07:17:08;;;;;;;3.15;2.60;;;;;;;27.85;41.06;100397.50;1758954;80;21500;-84
2022/07/24 07:19:35;;;;;;;4.17;2.42;;;;;;;27.84;41.05;100393.89;1758432;80;21078;-84
2022/07/24 07:22:01;;;;;;;2.92;2.33;;;;;;;27.84;41.06;100388.30;1759068;80;21350;-84
2022/07/24 07:24:33;;;;;;;3.30;2.40;;;;;;;27.85;41.06;100387.72;1758929;80;21031;-84
2022/07/24 07:27:00;;;;;;;3.22;2.55;;;;;;;27.85;41.05;100381.53;1758794;80;20999;-85
2022/07/24 07:29:26;;;;;;;3.17;2.52;;;;;;;27.85;41.05;100381.53;1741401;81;21887;-84
2022/07/24 07:31:53;;;;;;;3.67;3.17;;;;;;;27.86;41.08;100380.95;1742703;81;21055;-85
2022/07/24 07:34:19;;;;;;;3.22;2.37;;;;;;;27.85;41.11;100380.14;1742386;81;21000;-84
2022/07/24 07:36:46;;;;;;;3.70;2.15;;;;;;;27.86;41.11;100378.96;1742733;81;21663;-85
2022/07/24 07:39:12;;;;;;;2.55;2.30;;;;;;;27.86;41.10;100383.74;1732597;81;21039;-84
2022/07/24 07:41:39;;;;;;;2.85;2.55;;;;;;;27.86;41.11;100382.34;1732253;81;21167;-85
2022/07/24 07:44:05;;;;;;;2.65;2.30;;;;;;;27.86;41.11;100378.96;1732606;81;21039;-84
2022/07/24 07:46:32;;;;;;;2.17;1.90;;;;;;;27.87;41.12;100386.17;1732615;81;21045;-84
2022/07/24 07:48:58;;;;;;;2.87;2.47;;;;;;;27.88;41.11;100370.20;1732329;82;21055;-84
2022/07/24 07:51:24;;;;;;;3.15;2.20;;;;;;;27.87;41.13;100368.59;1732678;82;21055;-84
2022/07/24 07:53:51;;;;;;;2.90;2.42;;;;;;;27.88;41.10;100368.81;1732373;81;21455;-85
2022/07/24 07:56:17;;;;;;;3.22;2.72;;;;;;;27.88;41.12;100364.00;1732414;81;21490;-84
2022/07/24 07:58:44;;;;;;;3.22;2.60;;;;;;;27.89;41.14;100367.60;1732576;82;21047;-84
2022/07/24 08:01:10;;;;;;;2.58;2.37;;;;;;;27.88;41.15;100364.00;1732725;81;21067;-85
2022/07/24 08:03:37;;;;;;;2.95;2.58;;;;;;;27.90;41.17;100370.62;1732656;81;20976;-84
2022/07/24 08:06:04;;;;;;;2.67;2.40;;;;;;;27.89;41.16;100365.62;1732743;81;21883;-84
2022/07/24 08:08:30;;;;;;;3.90;2.30;;;;;;;27.91;41.16;100366.06;1732643;82;20972;-85
2022/07/24 08:10:57;;;;;;;2.83;2.22;;;;;;;27.91;41.14;100368.85;1732480;81;21020;-84
2022/07/24 08:13:30;;;;;;;3.30;2.55;;;;;;;27.91;41.16;100365.25;1732696;82;21355;-85
2022/07/24 08:15:56;;;;;;;4.40;2.60;;;;;;;27.91;41.14;100367.45;1732833;81;21134;-84
2022/07/24 08:18:22;;;;;;;2.40;2.10;;;;;;;27.91;41.14;100366.06;1732210;81;21176;-85
2022/07/24 08:20:49;;;;;;;3.20;2.65;;;;;;;27.91;41.14;100375.03;1732713;81;20927;-84
2022/07/24 08:23:15;;;;;;;3.60;2.33;;;;;;;27.91;41.13;100367.45;1716197;81;21000;-84
2022/07/24 08:25:45;;;;;;;2.65;2.35;;;;;;;27.92;41.15;100375.25;1732297;82;21004;-85
2022/07/24 08:28:11;;;;;;;2.70;2.30;;;;;;;27.92;41.14;100378.05;1732859;81;21031;-83
2022/07/24 08:30:37;;;;;;;2.30;2.10;;;;;;;27.92;41.14;100380.23;1759136;80;21158;-84
2022/07/24 08:33:04;;;;;;;3.42;2.70;;;;;;;27.93;41.15;100376.84;1759094;80;21003;-83
2022/07/24 08:35:30;;;;;;;3.70;2.35;;;;;;;27.93;41.13;100381.84;1759221;80;21015;-83
2022/07/24 08:37:57;;;;;;;2.72;2.27;;;;;;;27.93;41.10;100372.06;1759088;80;21013;-84
2022/07/24 08:40:24;;;;;;;3.35;2.72;;;;;;;27.94;41.10;100378.47;1758904;80;21062;-84
2022/07/24 08:42:50;;;;;;;3.47;2.20;;;;;;;27.93;41.09;100379.05;1759215;80;21014;-83
2022/07/24 08:45:22;;;;;;;4.95;2.50;;;;;;;27.94;41.11;100375.08;1758869;80;21520;-84
2022/07/24 08:47:49;;;;;;;2.45;2.25;;;;;;;27.93;41.08;100377.66;1759258;80;21058;-84
2022/07/24 08:50:15;;;;;;;2.60;2.35;;;;;;;27.94;41.08;100376.48;1758792;80;21038;-84
2022/07/24 08:52:42;;;;;;;2.67;2.25;;;;;;;27.94;41.10;100377.06;1787591;78;21047;-84
2022/07/24 08:55:09;;;;;;;2.87;2.22;;;;;;;27.95;41.08;100377.29;1759136;81;21188;-84
2022/07/24 08:57:35;;;;;;;3.27;2.15;;;;;;;27.95;41.09;100377.29;1759235;80;21036;-84
2022/07/24 09:00:01;;;;;;;2.90;2.35;;;;;;;27.94;41.12;100375.67;1759427;80;21035;-84
2022/07/24 09:02:28;;;;;;;3.60;2.45;;;;;;;27.95;41.11;100371.70;1758829;80;21140;-83
2022/07/24 09:05:01;;;;;;;2.90;2.30;;;;;;;27.95;41.11;100372.50;1757819;81;20969;-83
2022/07/24 09:07:29;;;;;;;2.92;2.17;;;;;;;27.96;41.11;100374.12;1757355;80;21159;-83
2022/07/24 09:10:09;;;;;;;2.33;2.00;;;;;;;27.96;41.12;100371.92;1757443;81;21052;-84
2022/07/24 09:12:41;;;;;;;2.98;2.12;;;;;;;27.96;41.12;100362.13;1758096;80;21048;-82
2022/07/24 09:15:13;;;;;;;2.72;2.02;;;;;;;27.96;41.11;100365.73;1757436;81;21059;-83
2022/07/24 09:17:53;;;;;;;3.83;2.47;;;;;;;27.96;41.09;100369.13;1757663;81;21052;-84
2022/07/24 09:20:21;;;;;;;3.10;2.20;;;;;;;27.96;41.08;100367.13;1757579;80;21420;-84
2022/07/24 09:22:47;;;;;;;3.00;2.08;;;;;;;27.95;41.11;100366.91;1757752;80;21048;-84
2022/07/24 09:25:23;;;;;;;3.87;2.50;;;;;;;27.97;41.11;100365.12;1757837;81;21063;-85
2022/07/24 09:27:57;;;;;;;2.65;2.25;;;;;;;27.97;41.13;100357.53;1757423;80;21596;-84
2022/07/24 09:30:36;;;;;;;3.00;2.35;;;;;;;27.97;41.13;100355.33;1752094;80;21041;-84
2022/07/24 09:33:09;;;;;;;3.67;2.20;;;;;;;27.97;41.13;100358.94;1748825;81;21527;-84
2022/07/24 09:35:43;;;;;;;2.87;2.20;;;;;;;27.97;41.12;100356.14;1751002;80;21048;-84
2022/07/24 09:38:12;;;;;;;3.40;2.50;;;;;;;27.98;41.14;100356.95;1750542;80;21052;-84
2022/07/24 09:40:42;;;;;;;3.12;2.30;;;;;;;27.97;41.13;100351.95;1751605;80;21020;-84
2022/07/24 09:43:26;;;;;;;2.77;2.30;;;;;;;27.97;41.16;100351.95;1752058;79;21042;-83
2022/07/24 09:46:06;;;;;;;2.77;2.15;;;;;;;27.98;41.13;100351.36;1752554;80;21090;-84
2022/07/24 09:48:57;;;;;;;2.97;2.50;;;;;;;27.98;41.14;100346.57;1753105;80;21026;-84
2022/07/24 09:51:20;;;;;;;2.80;2.12;;;;;;;27.98;41.13;100337.38;1751687;80;21418;-84
2022/07/24 09:53:49;;;;;;;2.77;2.20;;;;;;;27.99;41.17;100345.98;1752895;80;21026;-85
2022/07/24 09:56:17;;;;;;;3.17;2.12;;;;;;;27.98;41.16;100340.98;1753007;80;21540;-84
2022/07/24 09:58:52;;;;;;;2.98;1.98;;;;;;;27.97;41.19;100346.35;1753100;80;21358;-83
2022/07/24 10:01:21;;;;;;;3.17;2.58;;;;;;;27.98;41.19;100340.98;1753406;80;21092;-85
2022/07/24 10:03:48;;;;;;;2.67;2.42;;;;;;;27.98;41.18;100342.97;1753153;81;21037;-82
2022/07/24 10:06:17;;;;;;;2.85;2.35;;;;;;;27.99;41.20;100337.59;1754089;80;21013;-84
2022/07/24 10:08:45;;;;;;;3.00;2.30;;;;;;;27.99;41.22;100333.40;1755588;80;21116;-84
2022/07/24 10:11:11;;;;;;;3.30;2.22;;;;;;;27.99;41.22;100337.59;1754742;81;21015;-84
2022/07/24 10:13:38;;;;;;;3.05;2.52;;;;;;;27.99;41.22;100337.00;1754408;80;21082;-83
2022/07/24 10:16:31;;;;;;;2.62;2.30;;;;;;;28.00;41.22;100326.63;1754678;81;21353;-83
2022/07/24 10:19:03;;;;;;;2.65;2.40;;;;;;;28.00;41.23;100324.64;1753876;81;21077;-82
2022/07/24 10:21:32;;;;;;;2.65;2.33;;;;;;;28.00;41.21;100327.44;1747871;81;21105;-82
2022/07/24 10:24:10;;;;;;;3.05;2.37;;;;;;;28.00;41.19;100322.44;1754205;80;21155;-83
2022/07/24 10:26:51;;;;;;;2.92;2.25;;;;;;;28.00;41.21;100319.64;1753125;81;21550;-84
2022/07/24 10:29:20;;;;;;;2.70;2.50;;;;;;;28.01;41.19;100317.84;1753967;81;21045;-84
2022/07/24 10:31:52;;;;;;;4.10;2.50;;;;;;;28.00;41.21;100315.45;1759626;80;21066;-84
2022/07/24 10:34:49;;;;;;;3.35;2.77;;;;;;;28.00;41.19;100316.25;1759599;80;22134;-83
2022/07/24 10:37:47;;;;;;;3.10;2.20;;;;;;;28.00;41.19;100309.27;1759103;80;20998;-84
2022/07/24 10:40:25;;;;;;;3.10;2.50;;;;;;;28.01;41.21;100310.85;1758957;79;21485;-85
2022/07/24 10:43:10;;;;;;;2.77;2.17;;;;;;;27.99;41.17;100303.45;1759162;80;21528;-85
2022/07/24 10:45:43;;;;;;;2.42;2.08;;;;;;;28.00;41.18;100298.67;1759304;80;21069;-84
2022/07/24 10:48:26;;;;;;;3.45;2.20;;;;;;;27.99;41.18;100299.26;1759132;80;20999;-84
2022/07/24 10:51:02;;;;;;;4.70;2.65;;;;;;;28.00;41.18;100295.88;1759341;80;21173;-84
2022/07/24 10:53:43;;;;;;;2.80;2.30;;;;;;;27.99;41.20;100294.25;1717466;81;21115;-83
2022/07/24 10:56:38;;;;;;;3.67;2.50;;;;;;;28.00;41.21;100293.08;1729143;81;21047;-84
2022/07/24 10:59:14;;;;;;;3.35;2.35;;;;;;;28.00;41.19;100288.88;1728954;82;20972;-83
2022/07/24 11:01:47;;;;;;;3.25;2.30;;;;;;;28.00;41.21;100288.30;1729135;81;21193;-84
2022/07/24 11:04:25;;;;;;;2.50;2.00;;;;;;;28.00;41.19;100283.29;1728750;81;21095;-84
2022/07/24 11:07:16;;;;;;;3.30;2.60;;;;;;;28.00;41.23;100284.69;1728966;81;21782;-84
2022/07/24 11:10:01;;;;;;;3.42;2.40;;;;;;;28.00;41.25;100286.89;1727795;83;21031;-84
2022/07/24 11:12:29;;;;;;;2.33;2.10;;;;;;;28.00;41.24;100281.30;1728691;81;21036;-84
2022/07/24 11:17:51;;;;;;;2.70;2.15;;;;;;;28.00;41.25;100277.11;1728537;81;21537;-83
2022/07/24 11:20:18;;;;;;;3.15;2.25;;;;;;;28.01;41.27;100274.50;1727308;83;21043;-84
2022/07/24 11:22:54;;;;;;;2.92;2.30;;;;;;;28.01;41.28;100274.50;1728749;81;21095;-83
2022/07/24 11:25:26;;;;;;;3.62;2.35;;;;;;;28.01;41.30;100268.09;1728638;83;21082;-84
2022/07/24 11:27:56;;;;;;;2.85;2.20;;;;;;;28.01;41.30;100266.11;1728728;81;21098;-83
2022/07/24 11:30:22;;;;;;;;;;;;;;;28.02;41.33;100259.34;1746170;81;21101;-84
2022/07/24 11:32:49;;;;;;;2.75;2.02;;;;;;;28.01;41.37;100257.72;1752908;81;20308;-84